This is the latest recevied weather packets stored in our database for station/object BV3BA-13. If no packets are shown the sender has not sent any weather packets the latest 10 day(s).
| Time | Temp. | Humidity | Pressure | Rain* | Wind** | Luminosity | Snow |
|---|---|---|---|---|---|---|---|
| 1788602823 | 28.33° C | 81% | 1003.7 hPa | 0 mm | - | - | - |
| 1788602223 | 28.33° C | 79% | 1003.6 hPa | 0 mm | - | - | - |
| 1788601624 | 28.33° C | 78% | 1003.6 hPa | 0 mm | - | - | - |
| 1788601025 | 28.33° C | 78% | 1003.5 hPa | 0 mm | - | - | - |
| 1788600423 | 28.33° C | 80% | 1003.4 hPa | 0 mm | - | - | - |
| 1788599824 | 28.33° C | 81% | 1003.3 hPa | 0 mm | - | - | - |
| 1788599224 | 28.33° C | 81% | 1003.2 hPa | 0 mm | - | - | - |
| 1788598624 | 28.33° C | 83% | 1003.1 hPa | 0 mm | - | - | - |
| 1788598024 | 28.33° C | 82% | 1003 hPa | 0 mm | - | - | - |
| 1788597426 | 27.78° C | 83% | 1003 hPa | 0 mm | - | - | - |
| 1788596823 | 27.78° C | 81% | 1003 hPa | 0 mm | - | - | - |
| 1788596224 | 27.78° C | 79% | 1002.9 hPa | 0 mm | - | - | - |
| 1788595623 | 27.22° C | 80% | 1002.9 hPa | 0 mm | - | - | - |
| 1788595023 | 27.78° C | 77% | 1002.9 hPa | 0 mm | - | - | - |
| 1788594424 | 28.89° C | 75% | 1002.7 hPa | 0 mm | - | - | - |
| 1788593825 | 29.44° C | 74% | 1002.6 hPa | 0 mm | - | - | - |
| 1788593224 | 29.44° C | 72% | 1002.6 hPa | 0 mm | - | - | - |
| 1788592623 | 29.44° C | 73% | 1002.6 hPa | 0 mm | - | - | - |
| 1788592024 | 30° C | 72% | 1002.5 hPa | 0 mm | - | - | - |
| 1788591423 | 30.56° C | 68% | 1002.6 hPa | 0 mm | - | - | - |
| 1788590824 | 30.56° C | 69% | 1002.7 hPa | 0 mm | - | - | - |
| 1788590223 | 30° C | 70% | 1002.8 hPa | 0 mm | - | - | - |
| 1788589624 | 30.56° C | 69% | 1002.9 hPa | 0 mm | - | - | - |
| 1788589025 | 30.56° C | 69% | 1003 hPa | 0 mm | - | - | - |
| 1788588424 | 29.44° C | 73% | 1003.1 hPa | 0 mm | - | - | - |
* Rain latest hour (hover to see other rain measurements)
** Current wind speed in m/s (hover to see current wind gust speed)